sensor_id;sensor_type;location;lat;lon;timestamp;P1;durP1;ratioP1;P2;durP2;ratioP2
36351;SDS011;22382;44.768;17.206;2022-08-21T00:01:49;7.90;;;4.95;;
36351;SDS011;22382;44.768;17.206;2022-08-21T00:04:16;12.18;;;4.82;;
36351;SDS011;22382;44.768;17.206;2022-08-21T00:06:48;11.77;;;5.18;;
36351;SDS011;22382;44.768;17.206;2022-08-21T00:09:16;7.97;;;4.38;;
36351;SDS011;22382;44.768;17.206;2022-08-21T00:11:44;7.80;;;4.38;;
36351;SDS011;22382;44.768;17.206;2022-08-21T00:14:11;8.40;;;4.25;;
36351;SDS011;22382;44.768;17.206;2022-08-21T00:16:39;9.13;;;4.85;;
36351;SDS011;22382;44.768;17.206;2022-08-21T00:19:07;10.88;;;4.65;;
36351;SDS011;22382;44.768;17.206;2022-08-21T00:21:34;8.88;;;4.35;;
36351;SDS011;22382;44.768;17.206;2022-08-21T00:24:02;10.23;;;4.10;;
36351;SDS011;22382;44.768;17.206;2022-08-21T00:26:29;11.07;;;4.38;;
36351;SDS011;22382;44.768;17.206;2022-08-21T00:28:57;8.90;;;3.80;;
36351;SDS011;22382;44.768;17.206;2022-08-21T00:31:24;11.20;;;4.53;;
36351;SDS011;22382;44.768;17.206;2022-08-21T00:33:51;8.00;;;4.28;;
36351;SDS011;22382;44.768;17.206;2022-08-21T00:36:26;7.22;;;4.35;;
36351;SDS011;22382;44.768;17.206;2022-08-21T00:38:53;7.50;;;3.70;;
36351;SDS011;22382;44.768;17.206;2022-08-21T00:41:20;9.50;;;3.60;;
36351;SDS011;22382;44.768;17.206;2022-08-21T00:44:07;9.90;;;3.97;;
36351;SDS011;22382;44.768;17.206;2022-08-21T00:46:38;10.15;;;3.90;;
36351;SDS011;22382;44.768;17.206;2022-08-21T00:49:06;12.95;;;3.50;;
36351;SDS011;22382;44.768;17.206;2022-08-21T00:51:38;4.82;;;3.75;;
36351;SDS011;22382;44.768;17.206;2022-08-21T00:54:16;8.32;;;3.92;;
36351;SDS011;22382;44.768;17.206;2022-08-21T00:56:48;6.50;;;3.85;;
36351;SDS011;22382;44.768;17.206;2022-08-21T00:59:20;12.52;;;3.80;;
36351;SDS011;22382;44.768;17.206;2022-08-21T01:01:48;6.13;;;3.30;;
36351;SDS011;22382;44.768;17.206;2022-08-21T01:04:16;8.32;;;3.70;;
36351;SDS011;22382;44.768;17.206;2022-08-21T01:06:43;8.15;;;3.05;;
36351;SDS011;22382;44.768;17.206;2022-08-21T01:09:11;6.22;;;2.58;;
36351;SDS011;22382;44.768;17.206;2022-08-21T01:11:39;5.85;;;2.85;;
36351;SDS011;22382;44.768;17.206;2022-08-21T01:14:10;5.32;;;2.85;;
36351;SDS011;22382;44.768;17.206;2022-08-21T01:16:44;5.47;;;2.90;;
36351;SDS011;22382;44.768;17.206;2022-08-21T01:19:13;4.90;;;2.60;;
36351;SDS011;22382;44.768;17.206;2022-08-21T01:21:41;3.85;;;2.40;;
36351;SDS011;22382;44.768;17.206;2022-08-21T01:24:09;3.92;;;2.60;;
36351;SDS011;22382;44.768;17.206;2022-08-21T01:26:37;5.45;;;2.55;;
36351;SDS011;22382;44.768;17.206;2022-08-21T01:31:49;3.88;;;2.47;;
36351;SDS011;22382;44.768;17.206;2022-08-21T01:34:16;4.03;;;1.85;;
36351;SDS011;22382;44.768;17.206;2022-08-21T01:36:44;4.93;;;2.10;;
36351;SDS011;22382;44.768;17.206;2022-08-21T01:39:12;4.00;;;2.00;;
36351;SDS011;22382;44.768;17.206;2022-08-21T01:41:41;3.47;;;1.80;;
36351;SDS011;22382;44.768;17.206;2022-08-21T01:44:08;4.13;;;2.30;;
36351;SDS011;22382;44.768;17.206;2022-08-21T01:46:35;4.80;;;2.50;;
36351;SDS011;22382;44.768;17.206;2022-08-21T01:49:03;5.85;;;2.60;;
36351;SDS011;22382;44.768;17.206;2022-08-21T01:51:30;4.55;;;2.72;;
36351;SDS011;22382;44.768;17.206;2022-08-21T01:53:58;4.07;;;2.63;;
36351;SDS011;22382;44.768;17.206;2022-08-21T01:56:25;3.90;;;2.60;;
36351;SDS011;22382;44.768;17.206;2022-08-21T01:58:54;5.45;;;2.30;;
36351;SDS011;22382;44.768;17.206;2022-08-21T02:01:21;5.25;;;2.50;;
36351;SDS011;22382;44.768;17.206;2022-08-21T02:03:48;3.95;;;2.45;;
36351;SDS011;22382;44.768;17.206;2022-08-21T02:06:16;4.53;;;2.50;;
36351;SDS011;22382;44.768;17.206;2022-08-21T02:08:44;4.07;;;2.17;;
36351;SDS011;22382;44.768;17.206;2022-08-21T02:11:12;3.92;;;2.10;;
36351;SDS011;22382;44.768;17.206;2022-08-21T02:13:39;2.60;;;1.92;;
36351;SDS011;22382;44.768;17.206;2022-08-21T02:16:06;3.20;;;1.75;;
36351;SDS011;22382;44.768;17.206;2022-08-21T02:18:34;3.85;;;1.83;;
36351;SDS011;22382;44.768;17.206;2022-08-21T02:21:02;2.78;;;1.67;;
36351;SDS011;22382;44.768;17.206;2022-08-21T02:23:30;3.92;;;1.70;;
36351;SDS011;22382;44.768;17.206;2022-08-21T02:25:58;3.28;;;2.17;;
36351;SDS011;22382;44.768;17.206;2022-08-21T02:28:31;2.83;;;2.20;;
36351;SDS011;22382;44.768;17.206;2022-08-21T02:30:59;2.83;;;2.28;;
36351;SDS011;22382;44.768;17.206;2022-08-21T02:33:27;6.28;;;2.40;;
36351;SDS011;22382;44.768;17.206;2022-08-21T02:35:55;3.90;;;2.33;;
36351;SDS011;22382;44.768;17.206;2022-08-21T02:38:23;3.22;;;2.03;;
36351;SDS011;22382;44.768;17.206;2022-08-21T02:40:53;5.25;;;2.83;;
36351;SDS011;22382;44.768;17.206;2022-08-21T02:43:21;8.27;;;2.08;;
36351;SDS011;22382;44.768;17.206;2022-08-21T02:45:50;3.97;;;2.35;;
36351;SDS011;22382;44.768;17.206;2022-08-21T02:48:20;4.28;;;2.50;;
36351;SDS011;22382;44.768;17.206;2022-08-21T02:50:55;7.60;;;2.47;;
36351;SDS011;22382;44.768;17.206;2022-08-21T02:53:27;4.47;;;2.30;;
36351;SDS011;22382;44.768;17.206;2022-08-21T02:55:56;4.15;;;2.30;;
36351;SDS011;22382;44.768;17.206;2022-08-21T02:58:27;5.25;;;2.30;;
36351;SDS011;22382;44.768;17.206;2022-08-21T03:00:56;4.10;;;2.28;;
36351;SDS011;22382;44.768;17.206;2022-08-21T03:03:25;4.13;;;2.35;;
36351;SDS011;22382;44.768;17.206;2022-08-21T03:05:53;3.45;;;2.40;;
36351;SDS011;22382;44.768;17.206;2022-08-21T03:08:21;6.03;;;2.20;;
36351;SDS011;22382;44.768;17.206;2022-08-21T03:10:53;3.42;;;2.30;;
36351;SDS011;22382;44.768;17.206;2022-08-21T03:13:20;4.45;;;2.33;;
36351;SDS011;22382;44.768;17.206;2022-08-21T03:15:48;5.70;;;2.55;;
36351;SDS011;22382;44.768;17.206;2022-08-21T03:18:15;5.85;;;2.50;;
36351;SDS011;22382;44.768;17.206;2022-08-21T03:20:43;5.97;;;2.08;;
36351;SDS011;22382;44.768;17.206;2022-08-21T03:23:15;3.03;;;2.00;;
36351;SDS011;22382;44.768;17.206;2022-08-21T03:25:45;6.22;;;2.92;;
36351;SDS011;22382;44.768;17.206;2022-08-21T03:28:17;3.60;;;2.30;;
36351;SDS011;22382;44.768;17.206;2022-08-21T03:30:46;5.63;;;2.42;;
36351;SDS011;22382;44.768;17.206;2022-08-21T03:33:15;2.85;;;2.10;;
36351;SDS011;22382;44.768;17.206;2022-08-21T03:35:47;4.03;;;2.45;;
36351;SDS011;22382;44.768;17.206;2022-08-21T03:38:19;3.53;;;2.20;;
36351;SDS011;22382;44.768;17.206;2022-08-21T03:43:18;3.67;;;2.22;;
36351;SDS011;22382;44.768;17.206;2022-08-21T03:45:45;3.88;;;2.22;;
36351;SDS011;22382;44.768;17.206;2022-08-21T03:48:12;3.20;;;2.20;;
36351;SDS011;22382;44.768;17.206;2022-08-21T03:50:41;3.08;;;1.95;;
36351;SDS011;22382;44.768;17.206;2022-08-21T03:53:13;2.72;;;2.15;;
36351;SDS011;22382;44.768;17.206;2022-08-21T03:55:46;2.53;;;2.15;;
36351;SDS011;22382;44.768;17.206;2022-08-21T03:58:15;2.90;;;1.90;;
36351;SDS011;22382;44.768;17.206;2022-08-21T04:00:47;3.33;;;2.00;;
36351;SDS011;22382;44.768;17.206;2022-08-21T04:03:18;5.22;;;2.22;;
36351;SDS011;22382;44.768;17.206;2022-08-21T04:05:46;2.55;;;2.00;;
36351;SDS011;22382;44.768;17.206;2022-08-21T04:08:13;2.65;;;2.00;;
36351;SDS011;22382;44.768;17.206;2022-08-21T04:10:44;4.90;;;2.17;;
36351;SDS011;22382;44.768;17.206;2022-08-21T04:13:15;4.43;;;2.20;;
36351;SDS011;22382;44.768;17.206;2022-08-21T04:15:42;3.90;;;2.03;;
36351;SDS011;22382;44.768;17.206;2022-08-21T04:18:09;3.33;;;2.00;;
36351;SDS011;22382;44.768;17.206;2022-08-21T04:20:36;5.10;;;2.08;;
36351;SDS011;22382;44.768;17.206;2022-08-21T04:23:04;5.90;;;2.10;;
36351;SDS011;22382;44.768;17.206;2022-08-21T04:25:31;3.03;;;1.77;;
36351;SDS011;22382;44.768;17.206;2022-08-21T04:27:58;3.80;;;1.80;;
36351;SDS011;22382;44.768;17.206;2022-08-21T04:30:25;3.78;;;1.83;;
36351;SDS011;22382;44.768;17.206;2022-08-21T04:32:55;5.72;;;2.50;;
36351;SDS011;22382;44.768;17.206;2022-08-21T04:35:24;4.35;;;2.60;;
36351;SDS011;22382;44.768;17.206;2022-08-21T04:37:52;3.13;;;2.05;;
36351;SDS011;22382;44.768;17.206;2022-08-21T04:40:21;2.72;;;2.00;;
36351;SDS011;22382;44.768;17.206;2022-08-21T04:42:52;4.18;;;2.00;;
36351;SDS011;22382;44.768;17.206;2022-08-21T04:45:30;4.10;;;2.00;;
36351;SDS011;22382;44.768;17.206;2022-08-21T04:47:59;4.32;;;1.90;;
36351;SDS011;22382;44.768;17.206;2022-08-21T04:50:34;2.45;;;2.00;;
36351;SDS011;22382;44.768;17.206;2022-08-21T04:53:09;4.85;;;1.90;;
36351;SDS011;22382;44.768;17.206;2022-08-21T04:55:39;3.15;;;1.75;;
36351;SDS011;22382;44.768;17.206;2022-08-21T04:58:08;3.53;;;1.60;;
36351;SDS011;22382;44.768;17.206;2022-08-21T05:00:37;4.25;;;1.73;;
36351;SDS011;22382;44.768;17.206;2022-08-21T05:03:05;3.10;;;1.73;;
36351;SDS011;22382;44.768;17.206;2022-08-21T05:05:33;3.85;;;1.83;;
36351;SDS011;22382;44.768;17.206;2022-08-21T05:08:01;2.72;;;1.75;;
36351;SDS011;22382;44.768;17.206;2022-08-21T05:10:29;4.18;;;1.98;;
36351;SDS011;22382;44.768;17.206;2022-08-21T05:12:57;1.85;;;1.65;;
36351;SDS011;22382;44.768;17.206;2022-08-21T05:15:25;3.58;;;1.80;;
36351;SDS011;22382;44.768;17.206;2022-08-21T05:17:53;2.50;;;1.90;;
36351;SDS011;22382;44.768;17.206;2022-08-21T05:20:27;4.03;;;1.77;;
36351;SDS011;22382;44.768;17.206;2022-08-21T05:22:55;2.67;;;1.92;;
36351;SDS011;22382;44.768;17.206;2022-08-21T05:25:22;2.15;;;1.58;;
36351;SDS011;22382;44.768;17.206;2022-08-21T05:27:49;4.10;;;1.88;;
36351;SDS011;22382;44.768;17.206;2022-08-21T05:30:17;3.00;;;1.58;;
36351;SDS011;22382;44.768;17.206;2022-08-21T05:32:46;2.67;;;1.75;;
36351;SDS011;22382;44.768;17.206;2022-08-21T05:35:16;2.40;;;1.80;;
36351;SDS011;22382;44.768;17.206;2022-08-21T05:37:43;2.85;;;1.80;;
36351;SDS011;22382;44.768;17.206;2022-08-21T05:40:10;4.07;;;1.50;;
36351;SDS011;22382;44.768;17.206;2022-08-21T05:42:49;4.63;;;1.73;;
36351;SDS011;22382;44.768;17.206;2022-08-21T05:48:09;3.60;;;1.40;;
36351;SDS011;22382;44.768;17.206;2022-08-21T05:50:45;2.33;;;1.50;;
36351;SDS011;22382;44.768;17.206;2022-08-21T05:53:13;1.80;;;1.48;;
36351;SDS011;22382;44.768;17.206;2022-08-21T05:55:42;2.95;;;1.63;;
36351;SDS011;22382;44.768;17.206;2022-08-21T05:58:15;2.90;;;1.52;;
36351;SDS011;22382;44.768;17.206;2022-08-21T06:00:45;3.17;;;1.58;;
36351;SDS011;22382;44.768;17.206;2022-08-21T06:03:15;3.65;;;1.40;;
36351;SDS011;22382;44.768;17.206;2022-08-21T06:05:45;2.63;;;1.60;;
36351;SDS011;22382;44.768;17.206;2022-08-21T06:08:12;2.58;;;1.40;;
36351;SDS011;22382;44.768;17.206;2022-08-21T06:10:40;4.85;;;1.45;;
36351;SDS011;22382;44.768;17.206;2022-08-21T06:13:08;3.50;;;1.20;;
36351;SDS011;22382;44.768;17.206;2022-08-21T06:15:35;2.83;;;1.30;;
36351;SDS011;22382;44.768;17.206;2022-08-21T06:18:02;3.15;;;1.75;;
36351;SDS011;22382;44.768;17.206;2022-08-21T06:20:30;1.95;;;1.25;;
36351;SDS011;22382;44.768;17.206;2022-08-21T06:22:58;2.47;;;1.40;;
36351;SDS011;22382;44.768;17.206;2022-08-21T06:25:25;2.17;;;1.20;;
36351;SDS011;22382;44.768;17.206;2022-08-21T06:27:52;4.55;;;1.40;;
36351;SDS011;22382;44.768;17.206;2022-08-21T06:30:19;3.15;;;1.27;;
36351;SDS011;22382;44.768;17.206;2022-08-21T06:32:46;2.83;;;1.25;;
36351;SDS011;22382;44.768;17.206;2022-08-21T06:35:13;3.83;;;1.50;;
36351;SDS011;22382;44.768;17.206;2022-08-21T06:37:40;5.65;;;2.33;;
36351;SDS011;22382;44.768;17.206;2022-08-21T06:40:07;4.15;;;1.95;;
36351;SDS011;22382;44.768;17.206;2022-08-21T06:42:38;4.88;;;2.17;;
36351;SDS011;22382;44.768;17.206;2022-08-21T06:45:08;2.28;;;1.48;;
36351;SDS011;22382;44.768;17.206;2022-08-21T06:47:36;3.00;;;1.40;;
36351;SDS011;22382;44.768;17.206;2022-08-21T06:50:03;2.95;;;2.20;;
36351;SDS011;22382;44.768;17.206;2022-08-21T06:52:34;3.30;;;1.50;;
36351;SDS011;22382;44.768;17.206;2022-08-21T06:55:05;1.77;;;1.30;;
36351;SDS011;22382;44.768;17.206;2022-08-21T06:57:34;7.93;;;2.88;;
36351;SDS011;22382;44.768;17.206;2022-08-21T07:00:02;2.90;;;1.80;;
36351;SDS011;22382;44.768;17.206;2022-08-21T07:02:34;4.30;;;2.13;;
36351;SDS011;22382;44.768;17.206;2022-08-21T07:05:06;2.95;;;1.90;;
36351;SDS011;22382;44.768;17.206;2022-08-21T07:07:43;3.58;;;2.28;;
36351;SDS011;22382;44.768;17.206;2022-08-21T07:10:12;3.60;;;1.30;;
36351;SDS011;22382;44.768;17.206;2022-08-21T07:12:47;2.72;;;1.38;;
36351;SDS011;22382;44.768;17.206;2022-08-21T07:15:18;3.45;;;1.75;;
36351;SDS011;22382;44.768;17.206;2022-08-21T07:17:45;4.22;;;1.80;;
36351;SDS011;22382;44.768;17.206;2022-08-21T07:20:12;4.72;;;1.38;;
36351;SDS011;22382;44.768;17.206;2022-08-21T07:22:39;4.93;;;1.45;;
36351;SDS011;22382;44.768;17.206;2022-08-21T07:25:07;2.50;;;1.45;;
36351;SDS011;22382;44.768;17.206;2022-08-21T07:27:35;3.67;;;1.05;;
36351;SDS011;22382;44.768;17.206;2022-08-21T07:30:03;4.57;;;1.30;;
36351;SDS011;22382;44.768;17.206;2022-08-21T07:32:31;5.60;;;1.40;;
36351;SDS011;22382;44.768;17.206;2022-08-21T07:34:59;5.75;;;1.58;;
36351;SDS011;22382;44.768;17.206;2022-08-21T07:37:26;1.50;;;1.15;;
36351;SDS011;22382;44.768;17.206;2022-08-21T07:39:53;2.60;;;1.30;;
36351;SDS011;22382;44.768;17.206;2022-08-21T07:42:20;2.08;;;1.10;;
36351;SDS011;22382;44.768;17.206;2022-08-21T07:44:47;2.03;;;1.05;;
36351;SDS011;22382;44.768;17.206;2022-08-21T07:47:17;3.55;;;1.38;;
36351;SDS011;22382;44.768;17.206;2022-08-21T07:50:04;3.50;;;1.30;;
36351;SDS011;22382;44.768;17.206;2022-08-21T07:52:32;2.53;;;1.10;;
36351;SDS011;22382;44.768;17.206;2022-08-21T07:55:00;3.10;;;1.48;;
36351;SDS011;22382;44.768;17.206;2022-08-21T07:57:31;2.28;;;1.30;;
36351;SDS011;22382;44.768;17.206;2022-08-21T07:59:59;1.45;;;1.13;;
36351;SDS011;22382;44.768;17.206;2022-08-21T08:02:27;1.38;;;1.27;;
36351;SDS011;22382;44.768;17.206;2022-08-21T08:04:59;3.25;;;1.20;;
36351;SDS011;22382;44.768;17.206;2022-08-21T08:07:31;2.17;;;1.40;;
36351;SDS011;22382;44.768;17.206;2022-08-21T08:09:58;2.67;;;1.38;;
36351;SDS011;22382;44.768;17.206;2022-08-21T08:12:25;1.95;;;1.30;;
36351;SDS011;22382;44.768;17.206;2022-08-21T08:14:59;3.00;;;1.13;;
36351;SDS011;22382;44.768;17.206;2022-08-21T08:17:27;3.90;;;1.50;;
36351;SDS011;22382;44.768;17.206;2022-08-21T08:19:54;1.38;;;1.08;;
36351;SDS011;22382;44.768;17.206;2022-08-21T08:22:22;2.75;;;1.40;;
36351;SDS011;22382;44.768;17.206;2022-08-21T08:24:52;2.25;;;1.17;;
36351;SDS011;22382;44.768;17.206;2022-08-21T08:27:20;5.50;;;1.10;;
36351;SDS011;22382;44.768;17.206;2022-08-21T08:29:48;2.97;;;1.40;;
36351;SDS011;22382;44.768;17.206;2022-08-21T08:32:15;2.08;;;1.17;;
36351;SDS011;22382;44.768;17.206;2022-08-21T08:34:42;1.70;;;1.20;;
36351;SDS011;22382;44.768;17.206;2022-08-21T08:37:10;1.10;;;1.00;;
36351;SDS011;22382;44.768;17.206;2022-08-21T08:39:37;1.55;;;1.27;;
36351;SDS011;22382;44.768;17.206;2022-08-21T08:45:07;3.72;;;1.38;;
36351;SDS011;22382;44.768;17.206;2022-08-21T08:47:40;2.75;;;0.80;;
36351;SDS011;22382;44.768;17.206;2022-08-21T08:50:21;5.72;;;1.50;;
36351;SDS011;22382;44.768;17.206;2022-08-21T08:52:53;4.70;;;1.30;;
36351;SDS011;22382;44.768;17.206;2022-08-21T08:55:28;3.20;;;1.45;;
36351;SDS011;22382;44.768;17.206;2022-08-21T08:58:00;1.50;;;0.75;;
36351;SDS011;22382;44.768;17.206;2022-08-21T09:00:29;2.42;;;0.88;;
36351;SDS011;22382;44.768;17.206;2022-08-21T09:02:58;0.93;;;0.70;;
36351;SDS011;22382;44.768;17.206;2022-08-21T09:05:46;1.00;;;0.70;;
36351;SDS011;22382;44.768;17.206;2022-08-21T09:08:38;2.72;;;0.70;;
36351;SDS011;22382;44.768;17.206;2022-08-21T09:11:29;2.40;;;1.42;;
36351;SDS011;22382;44.768;17.206;2022-08-21T09:19:54;1.00;;;0.50;;
36351;SDS011;22382;44.768;17.206;2022-08-21T09:22:53;1.23;;;0.65;;
36351;SDS011;22382;44.768;17.206;2022-08-21T09:25:42;1.30;;;0.52;;
36351;SDS011;22382;44.768;17.206;2022-08-21T09:28:36;0.55;;;0.50;;
36351;SDS011;22382;44.768;17.206;2022-08-21T09:31:06;0.55;;;0.43;;
36351;SDS011;22382;44.768;17.206;2022-08-21T09:33:35;1.38;;;0.60;;
36351;SDS011;22382;44.768;17.206;2022-08-21T09:36:02;1.00;;;0.40;;
36351;SDS011;22382;44.768;17.206;2022-08-21T09:38:33;2.28;;;0.40;;
36351;SDS011;22382;44.768;17.206;2022-08-21T09:41:04;0.90;;;0.60;;
36351;SDS011;22382;44.768;17.206;2022-08-21T09:43:35;1.65;;;0.90;;
36351;SDS011;22382;44.768;17.206;2022-08-21T09:46:11;2.92;;;1.05;;
36351;SDS011;22382;44.768;17.206;2022-08-21T09:48:48;1.52;;;0.60;;
36351;SDS011;22382;44.768;17.206;2022-08-21T09:51:18;1.65;;;0.55;;
36351;SDS011;22382;44.768;17.206;2022-08-21T09:53:49;1.92;;;0.77;;
36351;SDS011;22382;44.768;17.206;2022-08-21T09:56:36;2.15;;;0.57;;
36351;SDS011;22382;44.768;17.206;2022-08-21T09:59:37;13.05;;;1.70;;
36351;SDS011;22382;44.768;17.206;2022-08-21T10:04:57;7.45;;;1.67;;
36351;SDS011;22382;44.768;17.206;2022-08-21T10:12:36;2.35;;;0.70;;
36351;SDS011;22382;44.768;17.206;2022-08-21T10:15:20;1.33;;;0.80;;
36351;SDS011;22382;44.768;17.206;2022-08-21T10:21:01;2.80;;;0.98;;
36351;SDS011;22382;44.768;17.206;2022-08-21T10:23:40;1.02;;;0.70;;
36351;SDS011;22382;44.768;17.206;2022-08-21T10:26:37;1.17;;;0.80;;
36351;SDS011;22382;44.768;17.206;2022-08-21T10:29:09;2.85;;;0.90;;
36351;SDS011;22382;44.768;17.206;2022-08-21T10:32:08;3.58;;;0.80;;
36351;SDS011;22382;44.768;17.206;2022-08-21T10:37:48;2.88;;;0.80;;
36351;SDS011;22382;44.768;17.206;2022-08-21T10:52:09;2.28;;;0.85;;
36351;SDS011;22382;44.768;17.206;2022-08-21T10:57:46;2.53;;;1.20;;
36351;SDS011;22382;44.768;17.206;2022-08-21T11:00:22;2.85;;;0.98;;
36351;SDS011;22382;44.768;17.206;2022-08-21T11:11:45;0.80;;;0.60;;
36351;SDS011;22382;44.768;17.206;2022-08-21T11:14:09;4.43;;;0.80;;
36351;SDS011;22382;44.768;17.206;2022-08-21T11:16:52;3.35;;;0.80;;
36351;SDS011;22382;44.768;17.206;2022-08-21T11:19:30;2.28;;;0.80;;
36351;SDS011;22382;44.768;17.206;2022-08-21T11:27:45;1.67;;;0.60;;
36351;SDS011;22382;44.768;17.206;2022-08-21T11:30:13;0.50;;;0.50;;
36351;SDS011;22382;44.768;17.206;2022-08-21T11:44:26;4.22;;;0.60;;
36351;SDS011;22382;44.768;17.206;2022-08-21T11:55:05;2.22;;;0.80;;
36351;SDS011;22382;44.768;17.206;2022-08-21T11:57:35;3.05;;;0.50;;
36351;SDS011;22382;44.768;17.206;2022-08-21T12:00:31;0.80;;;0.60;;
36351;SDS011;22382;44.768;17.206;2022-08-21T12:03:14;2.03;;;0.60;;
36351;SDS011;22382;44.768;17.206;2022-08-21T12:05:53;1.08;;;0.70;;
36351;SDS011;22382;44.768;17.206;2022-08-21T12:08:30;1.00;;;0.82;;
36351;SDS011;22382;44.768;17.206;2022-08-21T12:11:01;1.77;;;0.70;;
36351;SDS011;22382;44.768;17.206;2022-08-21T12:13:30;3.08;;;0.88;;
36351;SDS011;22382;44.768;17.206;2022-08-21T12:16:12;1.05;;;0.50;;
36351;SDS011;22382;44.768;17.206;2022-08-21T12:21:30;0.65;;;0.60;;
36351;SDS011;22382;44.768;17.206;2022-08-21T12:26:56;1.13;;;0.60;;
36351;SDS011;22382;44.768;17.206;2022-08-21T12:32:01;1.23;;;0.70;;
36351;SDS011;22382;44.768;17.206;2022-08-21T12:34:50;0.57;;;0.57;;
36351;SDS011;22382;44.768;17.206;2022-08-21T12:37:59;2.65;;;1.00;;
36351;SDS011;22382;44.768;17.206;2022-08-21T12:40:56;2.05;;;0.70;;
36351;SDS011;22382;44.768;17.206;2022-08-21T12:43:27;1.98;;;0.77;;
36351;SDS011;22382;44.768;17.206;2022-08-21T12:45:57;1.42;;;0.60;;
36351;SDS011;22382;44.768;17.206;2022-08-21T12:51:26;2.28;;;0.70;;
36351;SDS011;22382;44.768;17.206;2022-08-21T12:53:59;1.92;;;0.88;;
36351;SDS011;22382;44.768;17.206;2022-08-21T12:56:28;1.23;;;0.80;;
36351;SDS011;22382;44.768;17.206;2022-08-21T12:59:00;1.05;;;0.60;;
36351;SDS011;22382;44.768;17.206;2022-08-21T13:04:08;1.40;;;0.70;;
36351;SDS011;22382;44.768;17.206;2022-08-21T13:06:39;3.70;;;0.75;;
36351;SDS011;22382;44.768;17.206;2022-08-21T13:09:11;2.13;;;0.75;;
36351;SDS011;22382;44.768;17.206;2022-08-21T13:11:42;1.48;;;0.73;;
36351;SDS011;22382;44.768;17.206;2022-08-21T13:14:17;1.20;;;0.90;;
36351;SDS011;22382;44.768;17.206;2022-08-21T13:19:22;1.35;;;0.75;;
36351;SDS011;22382;44.768;17.206;2022-08-21T13:21:50;2.58;;;0.55;;
36351;SDS011;22382;44.768;17.206;2022-08-21T13:32:50;2.72;;;0.98;;
36351;SDS011;22382;44.768;17.206;2022-08-21T13:35:20;2.05;;;0.82;;
36351;SDS011;22382;44.768;17.206;2022-08-21T13:37:52;1.70;;;0.80;;
36351;SDS011;22382;44.768;17.206;2022-08-21T13:40:25;2.30;;;0.77;;
36351;SDS011;22382;44.768;17.206;2022-08-21T13:42:56;2.70;;;0.90;;
36351;SDS011;22382;44.768;17.206;2022-08-21T13:45:30;1.63;;;0.85;;
36351;SDS011;22382;44.768;17.206;2022-08-21T13:48:00;2.00;;;1.00;;
36351;SDS011;22382;44.768;17.206;2022-08-21T13:50:40;1.38;;;0.80;;
36351;SDS011;22382;44.768;17.206;2022-08-21T13:53:23;2.45;;;0.77;;
36351;SDS011;22382;44.768;17.206;2022-08-21T13:55:58;3.90;;;0.90;;
36351;SDS011;22382;44.768;17.206;2022-08-21T13:58:28;2.25;;;0.90;;
36351;SDS011;22382;44.768;17.206;2022-08-21T14:00:56;2.45;;;0.90;;
36351;SDS011;22382;44.768;17.206;2022-08-21T14:03:32;1.90;;;1.02;;
36351;SDS011;22382;44.768;17.206;2022-08-21T14:06:12;2.05;;;0.85;;
36351;SDS011;22382;44.768;17.206;2022-08-21T14:08:47;3.28;;;1.10;;
36351;SDS011;22382;44.768;17.206;2022-08-21T14:11:19;1.98;;;0.80;;
36351;SDS011;22382;44.768;17.206;2022-08-21T14:14:07;1.92;;;1.02;;
36351;SDS011;22382;44.768;17.206;2022-08-21T14:16:56;1.90;;;0.90;;
36351;SDS011;22382;44.768;17.206;2022-08-21T14:19:47;1.25;;;0.85;;
36351;SDS011;22382;44.768;17.206;2022-08-21T14:22:27;2.63;;;1.17;;
36351;SDS011;22382;44.768;17.206;2022-08-21T14:24:59;3.78;;;1.80;;
36351;SDS011;22382;44.768;17.206;2022-08-21T14:27:33;3.10;;;1.17;;
36351;SDS011;22382;44.768;17.206;2022-08-21T14:30:08;1.67;;;1.23;;
36351;SDS011;22382;44.768;17.206;2022-08-21T14:32:40;4.70;;;2.95;;
36351;SDS011;22382;44.768;17.206;2022-08-21T14:37:41;3.58;;;1.38;;
36351;SDS011;22382;44.768;17.206;2022-08-21T14:40:11;2.60;;;1.33;;
36351;SDS011;22382;44.768;17.206;2022-08-21T14:42:42;2.40;;;1.00;;
36351;SDS011;22382;44.768;17.206;2022-08-21T14:45:13;3.60;;;1.10;;
36351;SDS011;22382;44.768;17.206;2022-08-21T14:47:46;1.70;;;1.10;;
36351;SDS011;22382;44.768;17.206;2022-08-21T14:50:13;2.75;;;0.90;;
36351;SDS011;22382;44.768;17.206;2022-08-21T14:52:41;2.95;;;1.10;;
36351;SDS011;22382;44.768;17.206;2022-08-21T14:55:09;2.72;;;1.08;;
36351;SDS011;22382;44.768;17.206;2022-08-21T14:57:40;2.47;;;1.00;;
36351;SDS011;22382;44.768;17.206;2022-08-21T15:00:17;1.30;;;1.08;;
36351;SDS011;22382;44.768;17.206;2022-08-21T15:02:57;2.13;;;1.10;;
36351;SDS011;22382;44.768;17.206;2022-08-21T15:05:25;2.67;;;0.90;;
36351;SDS011;22382;44.768;17.206;2022-08-21T15:07:59;4.05;;;1.20;;
36351;SDS011;22382;44.768;17.206;2022-08-21T15:10:26;2.45;;;0.85;;
36351;SDS011;22382;44.768;17.206;2022-08-21T15:12:53;4.45;;;1.13;;
36351;SDS011;22382;44.768;17.206;2022-08-21T15:15:20;2.80;;;1.10;;
36351;SDS011;22382;44.768;17.206;2022-08-21T15:17:47;2.65;;;1.08;;
36351;SDS011;22382;44.768;17.206;2022-08-21T15:20:14;1.83;;;0.82;;
36351;SDS011;22382;44.768;17.206;2022-08-21T15:22:42;1.48;;;0.77;;
36351;SDS011;22382;44.768;17.206;2022-08-21T15:25:13;1.73;;;0.90;;
36351;SDS011;22382;44.768;17.206;2022-08-21T15:27:40;1.45;;;0.70;;
36351;SDS011;22382;44.768;17.206;2022-08-21T15:30:07;2.60;;;1.30;;
36351;SDS011;22382;44.768;17.206;2022-08-21T15:32:35;2.75;;;1.13;;
36351;SDS011;22382;44.768;17.206;2022-08-21T15:35:04;2.33;;;1.50;;
36351;SDS011;22382;44.768;17.206;2022-08-21T15:37:31;3.05;;;1.95;;
36351;SDS011;22382;44.768;17.206;2022-08-21T15:39:58;3.92;;;2.10;;
36351;SDS011;22382;44.768;17.206;2022-08-21T15:42:26;1.85;;;1.40;;
36351;SDS011;22382;44.768;17.206;2022-08-21T15:44:53;3.85;;;2.10;;
36351;SDS011;22382;44.768;17.206;2022-08-21T15:47:22;3.67;;;2.00;;
36351;SDS011;22382;44.768;17.206;2022-08-21T15:49:55;2.10;;;1.60;;
36351;SDS011;22382;44.768;17.206;2022-08-21T15:52:22;2.25;;;1.42;;
36351;SDS011;22382;44.768;17.206;2022-08-21T15:54:49;1.33;;;1.02;;
36351;SDS011;22382;44.768;17.206;2022-08-21T15:57:18;2.53;;;1.20;;
36351;SDS011;22382;44.768;17.206;2022-08-21T15:59:56;1.35;;;1.00;;
36351;SDS011;22382;44.768;17.206;2022-08-21T16:02:26;1.88;;;1.15;;
36351;SDS011;22382;44.768;17.206;2022-08-21T16:04:56;2.40;;;1.67;;
36351;SDS011;22382;44.768;17.206;2022-08-21T16:07:24;2.47;;;1.45;;
36351;SDS011;22382;44.768;17.206;2022-08-21T16:09:52;2.38;;;1.48;;
36351;SDS011;22382;44.768;17.206;2022-08-21T16:12:20;5.28;;;1.73;;
36351;SDS011;22382;44.768;17.206;2022-08-21T16:14:52;2.05;;;1.02;;
36351;SDS011;22382;44.768;17.206;2022-08-21T16:17:21;1.90;;;1.50;;
36351;SDS011;22382;44.768;17.206;2022-08-21T16:19:52;2.40;;;1.20;;
36351;SDS011;22382;44.768;17.206;2022-08-21T16:22:19;6.30;;;1.45;;
36351;SDS011;22382;44.768;17.206;2022-08-21T16:24:46;2.70;;;1.35;;
36351;SDS011;22382;44.768;17.206;2022-08-21T16:27:13;1.98;;;1.35;;
36351;SDS011;22382;44.768;17.206;2022-08-21T16:29:43;2.78;;;1.20;;
36351;SDS011;22382;44.768;17.206;2022-08-21T16:32:11;4.53;;;1.45;;
36351;SDS011;22382;44.768;17.206;2022-08-21T16:34:42;2.78;;;1.42;;
36351;SDS011;22382;44.768;17.206;2022-08-21T16:37:13;4.15;;;1.30;;
36351;SDS011;22382;44.768;17.206;2022-08-21T16:39:49;3.58;;;1.80;;
36351;SDS011;22382;44.768;17.206;2022-08-21T16:42:21;7.80;;;3.15;;
36351;SDS011;22382;44.768;17.206;2022-08-21T16:44:52;8.38;;;4.40;;